Time;durP1;ratioP1;P1;durP2;ratioP2;P2;SDS_P1;SDS_P2;PMS_P1;PMS_P2;Temp;Humidity;BMP_temperature;BMP_pressure;BME280_temperature;BME280_humidity;BME280_pressure;Samples;Min_cycle;Max_cycle;Signal;HPM_P1;HPM_P2
2022/03/31 00:01:38;;;;;;;1.20;0.30;;;;;;;;;;4215112;28;20056;-35
2022/03/31 00:03:39;;;;;;;1.17;0.20;;;;;;;;;;4212953;28;20090;-35
2022/03/31 00:05:41;;;;;;;0.20;0.20;;;;;;;;;;4214846;28;20091;-35
2022/03/31 00:07:48;;;;;;;0.47;0.22;;;;;;;;;;4214877;28;20048;-33
2022/03/31 00:09:49;;;;;;;2.40;0.30;;;;;;;;;;4214800;28;20103;-35
2022/03/31 00:11:50;;;;;;;0.63;0.30;;;;;;;;;;4214310;28;20044;-35
2022/03/31 00:13:51;;;;;;;0.93;0.38;;;;;;;;;;4214693;28;20548;-35
2022/03/31 00:15:54;;;;;;;0.55;0.20;;;;;;;;;;4215130;28;20467;-35
2022/03/31 00:17:55;;;;;;;0.77;0.20;;;;;;;;;;4214356;28;20055;-34
2022/03/31 00:19:56;;;;;;;0.70;0.10;;;;;;;;;;4214778;28;20052;-34
2022/03/31 00:21:57;;;;;;;0.60;0.10;;;;;;;;;;4214488;28;20131;-34
2022/03/31 00:23:58;;;;;;;0.63;0.20;;;;;;;;;;4214600;28;20089;-35
2022/03/31 00:26:00;;;;;;;0.20;0.10;;;;;;;;;;4196130;28;20057;-34
2022/03/31 00:28:03;;;;;;;0.30;0.10;;;;;;;;;;4214644;28;20089;-34
2022/03/31 00:30:07;;;;;;;0.82;0.20;;;;;;;;;;4214482;28;20048;-34
2022/03/31 00:32:08;;;;;;;0.55;0.20;;;;;;;;;;4213596;28;20513;-34
2022/03/31 00:34:08;;;;;;;0.52;0.40;;;;;;;;;;4213974;28;20056;-34
2022/03/31 00:36:11;;;;;;;0.43;0.20;;;;;;;;;;4214507;28;20097;-34
2022/03/31 00:38:13;;;;;;;0.68;0.20;;;;;;;;;;4214225;28;20052;-35
2022/03/31 00:40:18;;;;;;;0.10;0.10;;;;;;;;;;4214161;28;20052;-35
2022/03/31 00:42:19;;;;;;;0.60;0.10;;;;;;;;;;4214303;28;20313;-34
2022/03/31 00:44:20;;;;;;;1.67;0.20;;;;;;;;;;4212857;28;20522;-34
2022/03/31 00:46:21;;;;;;;0.40;0.20;;;;;;;;;;4214466;28;20048;-34
2022/03/31 00:48:22;;;;;;;0.50;0.30;;;;;;;;;;4213869;28;20483;-34
2022/03/31 00:50:24;;;;;;;0.40;0.30;;;;;;;;;;4214172;28;20430;-35
2022/03/31 00:52:25;;;;;;;1.15;0.20;;;;;;;;;;4213917;28;20407;-34
2022/03/31 00:54:26;;;;;;;0.10;0.10;;;;;;;;;;4214047;28;20090;-34
2022/03/31 00:56:27;;;;;;;0.10;0.10;;;;;;;;;;4214011;28;20048;-34
2022/03/31 00:58:29;;;;;;;0.68;0.20;;;;;;;;;;4214118;28;20056;-34
2022/03/31 01:00:31;;;;;;;0.30;0.10;;;;;;;;;;4214031;28;20048;-34
2022/03/31 01:02:32;;;;;;;1.42;0.20;;;;;;;;;;4213442;28;20052;-35
2022/03/31 01:04:34;;;;;;;0.40;0.20;;;;;;;;;;4213781;28;20055;-35
2022/03/31 01:06:35;;;;;;;0.50;0.20;;;;;;;;;;4213795;28;20050;-34
2022/03/31 01:08:36;;;;;;;0.57;0.20;;;;;;;;;;4212195;28;20073;-34
2022/03/31 01:10:37;;;;;;;0.25;0.10;;;;;;;;;;4213764;28;20192;-34
2022/03/31 01:12:38;;;;;;;0.20;0.10;;;;;;;;;;4213601;28;20094;-34
2022/03/31 01:14:39;;;;;;;0.75;0.20;;;;;;;;;;4212453;28;20052;-35
2022/03/31 01:16:40;;;;;;;0.75;0.25;;;;;;;;;;4213877;28;20450;-35
2022/03/31 01:18:41;;;;;;;0.40;0.20;;;;;;;;;;4213390;28;20161;-34
2022/03/31 01:20:42;;;;;;;0.85;0.35;;;;;;;;;;4213508;28;20068;-35
2022/03/31 01:22:44;;;;;;;0.20;0.20;;;;;;;;;;4213323;28;20139;-34
2022/03/31 01:24:45;;;;;;;0.30;0.17;;;;;;;;;;4213771;28;20410;-34
2022/03/31 01:26:47;;;;;;;0.70;0.28;;;;;;;;;;4213345;28;20089;-34
2022/03/31 01:28:48;;;;;;;1.25;0.55;;;;;;;;;;4213527;28;20048;-35
2022/03/31 01:30:49;;;;;;;1.10;0.30;;;;;;;;;;4213406;28;20056;-34
2022/03/31 01:32:50;;;;;;;0.40;0.17;;;;;;;;;;4212983;28;20048;-34
2022/03/31 01:34:51;;;;;;;0.47;0.20;;;;;;;;;;4212137;28;20044;-34
2022/03/31 01:36:52;;;;;;;0.40;0.20;;;;;;;;;;4213340;28;20048;-35
2022/03/31 01:38:55;;;;;;;0.82;0.30;;;;;;;;;;4213285;28;20093;-35
2022/03/31 01:40:56;;;;;;;0.30;0.20;;;;;;;;;;4213365;28;20052;-34
2022/03/31 01:42:57;;;;;;;1.17;0.30;;;;;;;;;;4211761;28;20553;-34
2022/03/31 01:44:58;;;;;;;1.67;0.20;;;;;;;;;;4213367;28;20052;-34
2022/03/31 01:46:59;;;;;;;0.50;0.30;;;;;;;;;;4211441;28;20044;-34
2022/03/31 01:49:00;;;;;;;0.20;0.08;;;;;;;;;;4211625;28;20048;-34
2022/03/31 01:51:05;;;;;;;0.85;0.17;;;;;;;;;;4213205;28;20134;-34
2022/03/31 01:53:06;;;;;;;0.35;0.10;;;;;;;;;;4212652;28;20048;-34
2022/03/31 01:55:07;;;;;;;0.38;0.20;;;;;;;;;;4213163;28;20136;-34
2022/03/31 01:57:09;;;;;;;0.52;0.22;;;;;;;;;;4212974;28;20456;-35
2022/03/31 01:59:10;;;;;;;1.30;0.10;;;;;;;;;;4213066;28;20044;-35
2022/03/31 02:01:11;;;;;;;0.85;0.20;;;;;;;;;;4213001;28;20048;-34
2022/03/31 02:03:12;;;;;;;0.50;0.20;;;;;;;;;;4211246;28;20479;-34
2022/03/31 02:05:13;;;;;;;0.10;0.10;;;;;;;;;;4212883;28;20043;-34
2022/03/31 02:07:14;;;;;;;0.63;0.25;;;;;;;;;;4212542;28;20385;-34
2022/03/31 02:09:15;;;;;;;0.65;0.30;;;;;;;;;;4212838;28;20386;-34
2022/03/31 02:11:16;;;;;;;0.28;0.15;;;;;;;;;;4212754;28;20043;-35
2022/03/31 02:13:17;;;;;;;0.40;0.20;;;;;;;;;;4212927;28;20507;-34
2022/03/31 02:15:20;;;;;;;0.45;0.20;;;;;;;;;;4212789;28;20056;-34
2022/03/31 02:17:21;;;;;;;0.30;0.20;;;;;;;;;;4212295;28;20380;-35
2022/03/31 02:19:24;;;;;;;0.95;0.20;;;;;;;;;;4212475;28;20435;-34
2022/03/31 02:21:25;;;;;;;0.22;0.10;;;;;;;;;;4212533;28;20522;-34
2022/03/31 02:23:26;;;;;;;0.47;0.10;;;;;;;;;;4212493;28;20090;-34
2022/03/31 02:25:28;;;;;;;0.10;0.10;;;;;;;;;;4212879;28;20056;-34
2022/03/31 02:27:29;;;;;;;0.30;0.20;;;;;;;;;;4212689;28;20048;-34
2022/03/31 02:29:30;;;;;;;1.10;0.30;;;;;;;;;;4211288;28;20101;-34
2022/03/31 02:31:31;;;;;;;0.20;0.20;;;;;;;;;;4212692;28;20048;-34
2022/03/31 02:33:32;;;;;;;1.75;0.20;;;;;;;;;;4212302;28;20056;-35
2022/03/31 02:35:33;;;;;;;0.40;0.30;;;;;;;;;;4212807;28;20113;-34
2022/03/31 02:37:34;;;;;;;0.32;0.10;;;;;;;;;;4210944;28;20048;-36
2022/03/31 02:39:35;;;;;;;0.52;0.20;;;;;;;;;;4212749;28;20078;-35
2022/03/31 02:41:37;;;;;;;0.90;0.20;;;;;;;;;;4212579;28;20204;-35
2022/03/31 02:43:38;;;;;;;0.80;0.30;;;;;;;;;;4212248;28;20507;-34
2022/03/31 02:45:39;;;;;;;0.20;0.20;;;;;;;;;;4212397;28;20109;-34
2022/03/31 02:47:40;;;;;;;0.88;0.20;;;;;;;;;;4211594;28;20556;-34
2022/03/31 02:49:41;;;;;;;0.47;0.20;;;;;;;;;;4212075;28;20089;-34
2022/03/31 02:51:42;;;;;;;0.28;0.28;;;;;;;;;;4212562;28;20054;-35
2022/03/31 02:56:02;;;;;;;0.17;0.10;;;;;;;;;;4212057;28;20047;-35
2022/03/31 02:58:04;;;;;;;0.20;0.15;;;;;;;;;;4212441;28;20101;-34
2022/03/31 03:00:05;;;;;;;1.10;0.20;;;;;;;;;;4212218;28;20052;-35
2022/03/31 03:02:07;;;;;;;1.67;0.43;;;;;;;;;;4211590;28;20043;-35
2022/03/31 03:04:08;;;;;;;0.95;0.40;;;;;;;;;;4212205;28;20052;-34
2022/03/31 03:06:09;;;;;;;0.75;0.20;;;;;;;;;;4212485;28;20097;-35
2022/03/31 03:08:10;;;;;;;0.95;0.30;;;;;;;;;;4212133;28;20117;-35
2022/03/31 03:10:11;;;;;;;0.30;0.20;;;;;;;;;;4212417;28;20097;-35
2022/03/31 03:12:12;;;;;;;0.73;0.20;;;;;;;;;;4212095;28;20123;-35
2022/03/31 03:14:14;;;;;;;0.50;0.13;;;;;;;;;;4211948;28;20495;-35
2022/03/31 03:16:15;;;;;;;0.93;0.30;;;;;;;;;;4210979;28;20048;-35
2022/03/31 03:18:18;;;;;;;0.10;0.10;;;;;;;;;;4211882;28;20052;-35
2022/03/31 03:20:19;;;;;;;0.20;0.10;;;;;;;;;;4212065;28;20110;-35
2022/03/31 03:22:19;;;;;;;1.45;0.30;;;;;;;;;;4212033;28;20048;-35
2022/03/31 03:24:22;;;;;;;0.47;0.35;;;;;;;;;;4212077;28;20105;-34
2022/03/31 03:26:23;;;;;;;0.28;0.20;;;;;;;;;;4212188;28;20119;-35
2022/03/31 03:28:24;;;;;;;1.08;0.22;;;;;;;;;;4211901;28;20088;-35
2022/03/31 03:30:25;;;;;;;0.47;0.30;;;;;;;;;;4211745;28;20166;-35
2022/03/31 03:32:26;;;;;;;0.20;0.13;;;;;;;;;;4211631;28;20390;-36
2022/03/31 03:34:27;;;;;;;0.38;0.10;;;;;;;;;;4211519;28;20048;-35
2022/03/31 03:36:28;;;;;;;0.38;0.20;;;;;;;;;;4211976;28;20456;-36
2022/03/31 03:38:31;;;;;;;0.75;0.35;;;;;;;;;;4210428;28;20090;-35
2022/03/31 03:40:31;;;;;;;1.35;0.30;;;;;;;;;;4211850;28;20059;-35
2022/03/31 03:42:33;;;;;;;0.70;0.30;;;;;;;;;;4211822;28;20096;-35
2022/03/31 03:44:35;;;;;;;0.55;0.22;;;;;;;;;;4210362;28;20388;-35
2022/03/31 03:46:37;;;;;;;0.45;0.30;;;;;;;;;;4211713;28;20105;-35
2022/03/31 03:48:38;;;;;;;0.50;0.20;;;;;;;;;;4210925;28;20403;-35
2022/03/31 03:50:39;;;;;;;0.80;0.20;;;;;;;;;;4211797;28;20136;-35
2022/03/31 03:52:40;;;;;;;0.82;0.30;;;;;;;;;;4211521;28;20502;-35
2022/03/31 03:54:41;;;;;;;0.30;0.30;;;;;;;;;;4211647;28;20136;-35
2022/03/31 03:56:43;;;;;;;0.10;0.10;;;;;;;;;;4212045;28;20097;-34
2022/03/31 03:58:44;;;;;;;0.90;0.20;;;;;;;;;;4211587;28;20060;-35
2022/03/31 04:00:45;;;;;;;0.55;0.30;;;;;;;;;;4211737;28;20458;-34
2022/03/31 04:02:46;;;;;;;1.13;0.20;;;;;;;;;;4211254;28;20106;-35
2022/03/31 04:04:46;;;;;;;1.25;0.20;;;;;;;;;;4211628;28;20044;-35
2022/03/31 04:06:47;;;;;;;0.52;0.20;;;;;;;;;;4211690;28;20343;-35
2022/03/31 04:08:48;;;;;;;0.55;0.30;;;;;;;;;;4213660;28;20043;-35
2022/03/31 04:10:49;;;;;;;0.20;0.20;;;;;;;;;;4214698;28;20329;-35
2022/03/31 04:12:50;;;;;;;0.40;0.20;;;;;;;;;;4214535;28;20121;-35
2022/03/31 04:14:51;;;;;;;0.57;0.20;;;;;;;;;;4214763;28;20048;-35
2022/03/31 04:16:55;;;;;;;0.38;0.30;;;;;;;;;;4213884;28;20055;-35
2022/03/31 04:18:56;;;;;;;0.50;0.20;;;;;;;;;;4214590;28;20055;-35
2022/03/31 04:21:01;;;;;;;0.65;0.28;;;;;;;;;;4214636;28;20051;-35
2022/03/31 04:23:02;;;;;;;0.90;0.30;;;;;;;;;;4214423;28;20056;-35
2022/03/31 04:25:07;;;;;;;0.73;0.30;;;;;;;;;;4214600;28;20052;-35
2022/03/31 04:27:08;;;;;;;0.47;0.20;;;;;;;;;;4214441;28;20043;-35
2022/03/31 04:29:10;;;;;;;0.28;0.20;;;;;;;;;;4214333;28;20048;-35
2022/03/31 04:31:11;;;;;;;0.68;0.30;;;;;;;;;;4214211;28;20052;-34
2022/03/31 04:33:12;;;;;;;0.32;0.30;;;;;;;;;;4213767;28;20076;-35
2022/03/31 04:35:13;;;;;;;0.17;0.10;;;;;;;;;;4214487;28;20055;-35
2022/03/31 04:37:14;;;;;;;0.57;0.22;;;;;;;;;;4214517;28;20097;-35
2022/03/31 04:39:15;;;;;;;1.40;0.32;;;;;;;;;;4214266;28;20456;-34
2022/03/31 04:41:16;;;;;;;1.65;0.52;;;;;;;;;;4214200;28;20510;-35
2022/03/31 04:43:17;;;;;;;0.40;0.30;;;;;;;;;;4214094;28;20040;-35
2022/03/31 04:45:18;;;;;;;0.93;0.30;;;;;;;;;;4214106;28;20054;-35
2022/03/31 04:47:19;;;;;;;0.88;0.20;;;;;;;;;;4213543;28;20063;-35
2022/03/31 04:49:21;;;;;;;1.02;0.38;;;;;;;;;;4213909;28;20040;-35
2022/03/31 04:51:22;;;;;;;0.57;0.30;;;;;;;;;;4214122;28;20091;-36
2022/03/31 04:53:23;;;;;;;0.30;0.20;;;;;;;;;;4213843;28;20101;-35
2022/03/31 04:55:25;;;;;;;1.45;0.35;;;;;;;;;;4214170;28;20510;-35
2022/03/31 04:57:26;;;;;;;2.40;0.30;;;;;;;;;;4213907;28;20036;-35
2022/03/31 04:59:27;;;;;;;0.73;0.30;;;;;;;;;;4212671;28;20055;-35
2022/03/31 05:01:28;;;;;;;0.82;0.30;;;;;;;;;;4209722;28;20067;-35
2022/03/31 05:03:29;;;;;;;0.25;0.10;;;;;;;;;;4211567;28;20411;-35
2022/03/31 05:05:30;;;;;;;0.40;0.30;;;;;;;;;;4211837;28;20056;-35
2022/03/31 05:07:31;;;;;;;1.95;0.20;;;;;;;;;;4211808;28;20467;-35
2022/03/31 05:09:32;;;;;;;1.25;0.30;;;;;;;;;;4211791;28;20570;-35
2022/03/31 05:11:34;;;;;;;0.85;0.38;;;;;;;;;;4211887;28;20040;-36
2022/03/31 05:13:35;;;;;;;1.00;0.30;;;;;;;;;;4211704;28;20067;-35
2022/03/31 05:15:36;;;;;;;0.77;0.20;;;;;;;;;;4211676;28;20047;-35
2022/03/31 05:17:37;;;;;;;2.22;0.60;;;;;;;;;;4211504;28;20132;-34
2022/03/31 05:19:38;;;;;;;1.95;0.40;;;;;;;;;;4211374;28;20117;-37
2022/03/31 05:21:39;;;;;;;2.13;0.40;;;;;;;;;;4202168;28;21606;-35
2022/03/31 05:23:40;;;;;;;1.67;0.40;;;;;;;;;;4197197;28;20135;-35
2022/03/31 05:25:41;;;;;;;1.17;0.50;;;;;;;;;;4195623;28;20052;-35
2022/03/31 05:27:43;;;;;;;0.90;0.57;;;;;;;;;;4194761;28;20102;-35
2022/03/31 05:29:45;;;;;;;0.68;0.25;;;;;;;;;;4210390;28;20051;-35
2022/03/31 05:31:46;;;;;;;1.70;0.32;;;;;;;;;;4194546;28;20084;-35
2022/03/31 05:33:47;;;;;;;1.10;0.47;;;;;;;;;;4194844;28;20057;-35
2022/03/31 05:35:48;;;;;;;1.13;0.45;;;;;;;;;;4194900;28;20461;-35
2022/03/31 05:37:49;;;;;;;1.48;0.40;;;;;;;;;;4194105;28;20079;-36
2022/03/31 05:39:50;;;;;;;0.73;0.40;;;;;;;;;;4197380;28;20105;-35
2022/03/31 05:41:52;;;;;;;0.75;0.40;;;;;;;;;;4197983;28;20429;-36
2022/03/31 05:43:53;;;;;;;1.75;0.50;;;;;;;;;;4202006;28;20792;-35
2022/03/31 05:45:54;;;;;;;1.73;0.60;;;;;;;;;;4199901;28;20048;-35
2022/03/31 05:47:55;;;;;;;1.67;0.40;;;;;;;;;;4199231;28;20056;-36
2022/03/31 05:49:56;;;;;;;1.33;0.60;;;;;;;;;;4195863;28;20107;-35
2022/03/31 05:51:57;;;;;;;0.40;0.40;;;;;;;;;;4204316;28;20110;-35
2022/03/31 05:53:58;;;;;;;0.88;0.70;;;;;;;;;;4203443;28;20177;-35
2022/03/31 05:55:59;;;;;;;0.73;0.47;;;;;;;;;;4200641;28;20052;-35
2022/03/31 05:57:59;;;;;;;0.70;0.30;;;;;;;;;;4196201;28;21201;-35
2022/03/31 06:00:00;;;;;;;0.40;0.30;;;;;;;;;;4202629;28;20086;-35
2022/03/31 06:02:02;;;;;;;0.50;0.40;;;;;;;;;;4202719;28;20463;-36
2022/03/31 06:04:02;;;;;;;0.30;0.20;;;;;;;;;;4204731;28;20379;-35
2022/03/31 06:06:03;;;;;;;0.90;0.60;;;;;;;;;;4201601;28;20044;-35
2022/03/31 06:08:04;;;;;;;3.20;0.40;;;;;;;;;;4205261;28;20047;-35
2022/03/31 06:10:06;;;;;;;1.30;0.75;;;;;;;;;;4204164;28;20044;-34
2022/03/31 06:12:08;;;;;;;1.02;0.32;;;;;;;;;;4202501;28;20053;-35
2022/03/31 06:14:09;;;;;;;1.65;0.50;;;;;;;;;;4198525;28;20048;-34
2022/03/31 06:16:11;;;;;;;2.30;0.65;;;;;;;;;;4196751;28;20059;-35
2022/03/31 06:18:12;;;;;;;0.90;0.47;;;;;;;;;;4202152;28;20052;-34
2022/03/31 06:20:13;;;;;;;2.97;0.75;;;;;;;;;;4196057;28;20383;-35
2022/03/31 06:22:14;;;;;;;1.63;0.65;;;;;;;;;;4198548;28;20113;-35
2022/03/31 06:24:15;;;;;;;1.92;0.40;;;;;;;;;;4193717;28;20953;-35
2022/03/31 06:26:17;;;;;;;3.53;0.70;;;;;;;;;;4197101;28;20181;-35
2022/03/31 06:28:18;;;;;;;1.77;0.50;;;;;;;;;;4196952;28;20044;-34
2022/03/31 06:30:19;;;;;;;1.30;0.50;;;;;;;;;;4198083;28;20052;-35
2022/03/31 06:32:20;;;;;;;5.45;0.70;;;;;;;;;;4191636;28;20081;-34
2022/03/31 06:34:21;;;;;;;0.70;0.60;;;;;;;;;;4200599;28;20174;-34
2022/03/31 06:36:23;;;;;;;0.82;0.50;;;;;;;;;;4195719;28;20079;-34
2022/03/31 06:38:24;;;;;;;1.65;0.40;;;;;;;;;;4200038;28;20097;-34
2022/03/31 06:40:25;;;;;;;3.47;0.75;;;;;;;;;;4193138;28;20114;-35
2022/03/31 06:42:26;;;;;;;0.85;0.47;;;;;;;;;;4198041;28;20509;-34
2022/03/31 06:44:27;;;;;;;1.02;0.65;;;;;;;;;;4196049;28;20052;-36
2022/03/31 06:46:28;;;;;;;1.65;0.82;;;;;;;;;;4199669;28;20047;-35
2022/03/31 06:48:32;;;;;;;1.48;0.50;;;;;;;;;;4195351;28;20130;-36
2022/03/31 06:50:34;;;;;;;2.25;0.43;;;;;;;;;;4193117;28;20688;-35
2022/03/31 06:52:35;;;;;;;2.47;0.50;;;;;;;;;;4184911;28;20063;-35
2022/03/31 06:54:36;;;;;;;2.72;0.90;;;;;;;;;;4180300;28;20052;-34
2022/03/31 06:56:37;;;;;;;2.15;0.80;;;;;;;;;;4194839;28;20466;-35
2022/03/31 06:58:39;;;;;;;3.75;0.70;;;;;;;;;;4193693;28;20051;-35
2022/03/31 07:00:40;;;;;;;1.63;0.60;;;;;;;;;;4188736;28;20146;-35
2022/03/31 07:02:41;;;;;;;3.92;1.02;;;;;;;;;;4188777;28;20477;-35
2022/03/31 07:04:42;;;;;;;3.53;0.73;;;;;;;;;;4191665;28;20052;-36
2022/03/31 07:06:43;;;;;;;1.35;0.55;;;;;;;;;;4193377;28;20545;-35
2022/03/31 07:08:44;;;;;;;0.65;0.47;;;;;;;;;;4194013;28;20040;-35
2022/03/31 07:10:45;;;;;;;2.90;0.57;;;;;;;;;;4192350;28;20068;-36
2022/03/31 07:12:46;;;;;;;0.65;0.40;;;;;;;;;;4188599;28;21220;-36
2022/03/31 07:14:47;;;;;;;1.55;0.68;;;;;;;;;;4194612;28;20405;-36
2022/03/31 07:16:48;;;;;;;1.40;0.50;;;;;;;;;;4196190;28;20054;-35
2022/03/31 07:18:49;;;;;;;3.03;0.68;;;;;;;;;;4190216;28;20109;-36
2022/03/31 07:20:50;;;;;;;0.73;0.43;;;;;;;;;;4194891;28;20063;-35
2022/03/31 07:22:51;;;;;;;1.63;0.50;;;;;;;;;;4188646;28;20408;-36
2022/03/31 07:24:52;;;;;;;1.05;0.60;;;;;;;;;;4193937;28;20048;-35
2022/03/31 07:26:54;;;;;;;2.35;0.68;;;;;;;;;;4195750;28;20563;-35
2022/03/31 07:28:55;;;;;;;1.75;0.60;;;;;;;;;;4195548;28;20093;-35
2022/03/31 07:30:56;;;;;;;0.43;0.30;;;;;;;;;;4188249;28;20062;-36
2022/03/31 07:33:01;;;;;;;5.40;0.80;;;;;;;;;;4193588;28;20495;-36
2022/03/31 07:35:03;;;;;;;7.82;0.60;;;;;;;;;;4194002;28;20052;-36
2022/03/31 07:37:05;;;;;;;1.20;0.50;;;;;;;;;;4192322;28;20459;-35
2022/03/31 07:39:08;;;;;;;1.38;0.73;;;;;;;;;;4182022;28;20106;-46
2022/03/31 07:41:09;;;;;;;4.15;0.65;;;;;;;;;;4187659;28;20480;-35
2022/03/31 07:43:10;;;;;;;2.40;0.50;;;;;;;;;;4187521;28;20048;-35
2022/03/31 07:45:12;;;;;;;2.00;0.77;;;;;;;;;;4196472;28;20722;-35
2022/03/31 07:47:13;;;;;;;1.90;0.50;;;;;;;;;;4185440;28;20108;-36
2022/03/31 07:49:14;;;;;;;1.45;0.30;;;;;;;;;;4186361;28;20077;-36
2022/03/31 07:51:16;;;;;;;1.75;0.40;;;;;;;;;;4184979;28;20177;-35
2022/03/31 07:53:17;;;;;;;1.80;0.32;;;;;;;;;;4182819;28;20039;-36
2022/03/31 07:55:19;;;;;;;1.52;0.40;;;;;;;;;;4181373;28;20058;-36
2022/03/31 07:57:20;;;;;;;0.95;0.40;;;;;;;;;;4188246;28;20121;-35
2022/03/31 07:59:25;;;;;;;3.72;0.60;;;;;;;;;;4184488;28;20157;-36
2022/03/31 08:01:26;;;;;;;2.33;0.68;;;;;;;;;;4186922;28;20066;-36
2022/03/31 08:03:27;;;;;;;2.60;0.40;;;;;;;;;;4191947;28;20044;-36
2022/03/31 08:05:29;;;;;;;1.23;0.40;;;;;;;;;;4195636;28;20052;-37
2022/03/31 08:07:30;;;;;;;1.77;0.40;;;;;;;;;;4188018;28;20048;-37
2022/03/31 08:09:31;;;;;;;5.22;0.73;;;;;;;;;;4186303;28;20518;-37
2022/03/31 08:11:32;;;;;;;3.13;0.70;;;;;;;;;;4190540;28;20112;-36
2022/03/31 08:13:33;;;;;;;1.55;0.40;;;;;;;;;;4186173;28;20279;-37
2022/03/31 08:15:35;;;;;;;1.98;0.43;;;;;;;;;;4189363;28;20044;-36
2022/03/31 08:17:41;;;;;;;0.52;0.30;;;;;;;;;;4185984;28;20048;-37
2022/03/31 08:19:43;;;;;;;0.75;0.40;;;;;;;;;;4192048;28;20385;-37
2022/03/31 08:21:45;;;;;;;3.60;1.00;;;;;;;;;;4192854;28;20044;-37
2022/03/31 08:23:46;;;;;;;0.63;0.30;;;;;;;;;;4204444;27;20440;-37
2022/03/31 08:25:48;;;;;;;1.85;0.50;;;;;;;;;;4190249;28;20048;-36
2022/03/31 08:27:48;;;;;;;1.00;0.40;;;;;;;;;;4188909;28;20401;-36
2022/03/31 08:29:49;;;;;;;1.52;0.50;;;;;;;;;;4188546;28;20790;-37
2022/03/31 08:31:52;;;;;;;1.73;0.45;;;;;;;;;;4183600;28;20078;-36
2022/03/31 08:33:53;;;;;;;2.22;0.40;;;;;;;;;;4192495;28;20063;-37
2022/03/31 08:35:55;;;;;;;0.55;0.35;;;;;;;;;;4183935;28;20100;-38
2022/03/31 08:37:56;;;;;;;1.60;0.80;;;;;;;;;;4171171;28;20082;-39
2022/03/31 08:39:57;;;;;;;1.23;0.30;;;;;;;;;;4182352;28;20515;-37
2022/03/31 08:41:59;;;;;;;0.43;0.20;;;;;;;;;;4185117;28;20048;-36
2022/03/31 08:44:00;;;;;;;2.05;0.60;;;;;;;;;;4189339;28;20116;-37
2022/03/31 08:46:01;;;;;;;0.95;0.40;;;;;;;;;;4192472;28;20101;-37
2022/03/31 08:48:03;;;;;;;0.95;0.30;;;;;;;;;;4185766;28;20114;-37
2022/03/31 08:50:04;;;;;;;0.50;0.30;;;;;;;;;;4193471;28;20052;-37
2022/03/31 08:52:05;;;;;;;1.92;0.30;;;;;;;;;;4194516;28;20109;-38
2022/03/31 08:54:08;;;;;;;2.00;0.40;;;;;;;;;;4186752;28;20122;-39
2022/03/31 08:56:09;;;;;;;1.58;0.32;;;;;;;;;;4192574;28;20769;-37
2022/03/31 08:58:11;;;;;;;2.95;0.30;;;;;;;;;;4187591;28;20063;-37
2022/03/31 09:00:13;;;;;;;1.75;0.40;;;;;;;;;;4188796;28;20504;-37
2022/03/31 09:02:24;;;;;;;3.10;0.65;;;;;;;;;;4182779;28;20063;-37
2022/03/31 09:04:25;;;;;;;1.50;0.43;;;;;;;;;;4192295;28;20149;-38
2022/03/31 09:06:30;;;;;;;0.77;0.20;;;;;;;;;;4189941;28;20048;-37
2022/03/31 09:08:31;;;;;;;1.20;0.30;;;;;;;;;;4193834;28;20101;-38
2022/03/31 09:10:34;;;;;;;1.13;0.20;;;;;;;;;;4195696;28;20052;-38
2022/03/31 09:12:39;;;;;;;0.52;0.20;;;;;;;;;;4185999;28;20444;-38
2022/03/31 09:14:40;;;;;;;0.90;0.30;;;;;;;;;;4193535;28;20063;-37
2022/03/31 09:16:40;;;;;;;1.02;0.40;;;;;;;;;;4186360;28;20339;-38
2022/03/31 09:18:43;;;;;;;0.70;0.50;;;;;;;;;;4189416;28;20048;-38
2022/03/31 09:20:44;;;;;;;0.45;0.30;;;;;;;;;;4190942;28;20465;-37
2022/03/31 09:22:46;;;;;;;2.58;0.40;;;;;;;;;;4193378;28;20090;-38
2022/03/31 09:24:46;;;;;;;1.10;0.40;;;;;;;;;;4194716;28;20205;-37
2022/03/31 09:26:48;;;;;;;0.63;0.43;;;;;;;;;;4191399;28;20052;-38
2022/03/31 09:28:50;;;;;;;2.45;0.40;;;;;;;;;;4191064;28;20643;-37
2022/03/31 09:30:52;;;;;;;1.75;0.50;;;;;;;;;;4192075;28;20191;-39
2022/03/31 09:32:54;;;;;;;2.78;0.40;;;;;;;;;;4193610;28;20495;-36
2022/03/31 09:35:03;;;;;;;1.20;0.28;;;;;;;;;;4193651;28;20048;-37
2022/03/31 09:37:04;;;;;;;0.73;0.20;;;;;;;;;;4197760;28;20064;-37
2022/03/31 09:39:08;;;;;;;2.50;0.40;;;;;;;;;;4194618;28;20699;-38
2022/03/31 09:41:20;;;;;;;0.52;0.30;;;;;;;;;;4195253;28;20052;-36
2022/03/31 09:43:21;;;;;;;1.48;0.50;;;;;;;;;;4186369;28;20047;-43
2022/03/31 09:45:22;;;;;;;2.15;0.50;;;;;;;;;;4186218;28;20052;-37
2022/03/31 09:47:23;;;;;;;3.15;0.30;;;;;;;;;;4192182;28;20044;-36
2022/03/31 09:49:25;;;;;;;4.15;0.40;;;;;;;;;;4194003;28;21626;-36
2022/03/31 09:51:26;;;;;;;1.88;0.35;;;;;;;;;;4192312;28;20044;-36
2022/03/31 09:53:30;;;;;;;0.90;0.22;;;;;;;;;;4191275;28;20052;-36
2022/03/31 09:55:32;;;;;;;1.02;0.30;;;;;;;;;;4187459;28;20059;-36
2022/03/31 09:57:34;;;;;;;0.73;0.30;;;;;;;;;;4193619;28;20562;-36
2022/03/31 09:59:38;;;;;;;0.50;0.20;;;;;;;;;;4188158;28;20052;-36
2022/03/31 10:01:39;;;;;;;0.55;0.28;;;;;;;;;;4189354;28;20459;-37
2022/03/31 10:03:41;;;;;;;0.43;0.35;;;;;;;;;;4192927;28;20352;-36
2022/03/31 10:05:45;;;;;;;1.88;0.20;;;;;;;;;;4188098;28;20190;-36
2022/03/31 10:07:48;;;;;;;0.40;0.22;;;;;;;;;;4192070;28;20047;-35
2022/03/31 10:09:49;;;;;;;1.38;0.30;;;;;;;;;;4196334;28;20086;-38
2022/03/31 10:12:03;;;;;;;0.35;0.30;;;;;;;;;;4195982;28;20045;-38
2022/03/31 10:14:07;;;;;;;0.85;0.30;;;;;;;;;;4196506;28;20146;-39
2022/03/31 10:16:10;;;;;;;0.35;0.20;;;;;;;;;;4197368;28;21334;-36
2022/03/31 10:18:12;;;;;;;2.75;0.20;;;;;;;;;;4192690;28;20055;-37
2022/03/31 10:20:14;;;;;;;1.23;0.13;;;;;;;;;;4197993;28;20051;-37
2022/03/31 10:24:44;;;;;;;0.82;0.30;;;;;;;;;;4194245;28;20550;-38
2022/03/31 10:26:55;;;;;;;1.33;0.10;;;;;;;;;;4193013;28;20090;-37
2022/03/31 10:29:00;;;;;;;1.90;0.30;;;;;;;;;;4195401;28;20052;-36
2022/03/31 10:31:02;;;;;;;2.17;0.20;;;;;;;;;;4197094;28;20043;-36
2022/03/31 10:33:05;;;;;;;0.98;0.30;;;;;;;;;;4192476;28;20552;-36
2022/03/31 10:35:06;;;;;;;2.28;0.30;;;;;;;;;;4193219;28;20048;-38
2022/03/31 10:37:07;;;;;;;0.17;0.15;;;;;;;;;;4199818;28;20371;-37
2022/03/31 10:39:14;;;;;;;0.52;0.20;;;;;;;;;;4188644;28;20628;-36
2022/03/31 10:41:16;;;;;;;4.85;0.52;;;;;;;;;;4194329;28;20052;-36
2022/03/31 10:43:18;;;;;;;3.25;0.63;;;;;;;;;;4189254;28;20052;-36
2022/03/31 10:45:19;;;;;;;1.00;0.30;;;;;;;;;;4194774;28;20058;-36
2022/03/31 10:47:31;;;;;;;0.77;0.47;;;;;;;;;;4187093;28;20048;-37
2022/03/31 10:49:32;;;;;;;1.00;0.20;;;;;;;;;;4180437;28;20124;-36
2022/03/31 10:51:34;;;;;;;0.15;0.13;;;;;;;;;;4187308;28;20074;-36
2022/03/31 10:53:38;;;;;;;2.42;0.30;;;;;;;;;;4178660;28;20044;-36
2022/03/31 10:55:41;;;;;;;1.60;0.17;;;;;;;;;;4184141;28;20056;-36
2022/03/31 10:57:43;;;;;;;1.42;0.20;;;;;;;;;;4185133;28;20097;-38
2022/03/31 10:59:48;;;;;;;1.75;0.35;;;;;;;;;;4184651;28;20093;-36
2022/03/31 11:01:52;;;;;;;2.17;0.30;;;;;;;;;;4182455;28;20762;-37
2022/03/31 11:04:00;;;;;;;0.35;0.25;;;;;;;;;;4190465;28;20177;-37
2022/03/31 11:06:04;;;;;;;0.22;0.20;;;;;;;;;;4183335;28;20051;-36
2022/03/31 11:08:06;;;;;;;0.93;0.30;;;;;;;;;;4183472;28;20048;-36
2022/03/31 11:10:10;;;;;;;0.55;0.20;;;;;;;;;;4185738;28;20663;-36
2022/03/31 11:12:21;;;;;;;0.10;0.10;;;;;;;;;;4181895;28;20056;-35
2022/03/31 11:14:23;;;;;;;0.35;0.20;;;;;;;;;;4183290;28;20533;-36
2022/03/31 11:16:36;;;;;;;1.48;0.20;;;;;;;;;;4179133;28;20052;-36
2022/03/31 11:18:36;;;;;;;0.75;0.10;;;;;;;;;;4193550;28;20052;-37
2022/03/31 11:20:38;;;;;;;0.45;0.20;;;;;;;;;;4179631;28;20325;-36
2022/03/31 11:22:44;;;;;;;1.10;0.30;;;;;;;;;;4191294;28;20054;-37
2022/03/31 11:24:46;;;;;;;0.20;0.20;;;;;;;;;;4182255;28;20138;-36
2022/03/31 11:26:48;;;;;;;1.25;0.47;;;;;;;;;;4185636;28;20064;-36
2022/03/31 11:28:49;;;;;;;0.57;0.15;;;;;;;;;;4183533;28;20345;-36
2022/03/31 11:30:51;;;;;;;0.43;0.20;;;;;;;;;;4186228;28;20048;-37
2022/03/31 11:32:53;;;;;;;0.70;0.10;;;;;;;;;;4189187;28;20074;-36
2022/03/31 11:34:54;;;;;;;1.63;0.17;;;;;;;;;;4186381;28;20059;-36
2022/03/31 11:36:55;;;;;;;0.38;0.20;;;;;;;;;;4187771;28;20067;-36
2022/03/31 11:38:57;;;;;;;0.60;0.25;;;;;;;;;;4189642;28;20154;-36
2022/03/31 11:40:58;;;;;;;0.20;0.20;;;;;;;;;;4187595;28;20059;-35
2022/03/31 11:43:00;;;;;;;0.20;0.20;;;;;;;;;;4191379;28;20083;-34
2022/03/31 11:45:01;;;;;;;0.40;0.20;;;;;;;;;;4182605;28;20324;-35
2022/03/31 11:47:02;;;;;;;3.33;0.20;;;;;;;;;;4180194;28;20056;-35
2022/03/31 11:49:11;;;;;;;0.28;0.20;;;;;;;;;;4178841;28;20048;-34
2022/03/31 11:51:13;;;;;;;0.32;0.20;;;;;;;;;;4183702;28;20390;-35
2022/03/31 11:53:18;;;;;;;1.42;0.40;;;;;;;;;;4182069;28;20700;-34
2022/03/31 11:55:22;;;;;;;0.63;0.10;;;;;;;;;;4184680;28;21104;-34
2022/03/31 11:57:24;;;;;;;0.30;0.10;;;;;;;;;;4182359;28;20072;-35
2022/03/31 11:59:25;;;;;;;0.50;0.22;;;;;;;;;;4182675;28;20048;-35
2022/03/31 12:01:34;;;;;;;2.15;0.30;;;;;;;;;;4180542;28;20096;-35
2022/03/31 12:03:36;;;;;;;0.30;0.20;;;;;;;;;;4186741;28;20053;-35
2022/03/31 12:05:37;;;;;;;0.88;0.25;;;;;;;;;;4185215;28;21464;-35
2022/03/31 12:07:38;;;;;;;0.50;0.22;;;;;;;;;;4173701;28;20096;-34
2022/03/31 12:09:41;;;;;;;1.50;0.20;;;;;;;;;;4185132;28;20397;-35
2022/03/31 12:11:42;;;;;;;0.20;0.20;;;;;;;;;;4181932;28;20602;-35
2022/03/31 12:13:54;;;;;;;0.30;0.17;;;;;;;;;;4185672;28;21311;-36
2022/03/31 12:16:08;;;;;;;5.82;0.20;;;;;;;;;;4182321;28;20101;-35